Yuanjiang, China
Current Conditions -  °F | °C
As of 12:00 AM on Sunday 21 Dec 2014 (Local Time) from ZPPP Reporting Station
Clear Clear  
Wind Chill: 34°   Ceiling: Unl
Heat Index: 41°   Visibility: 6mi
Dew Point: 36°   Wind: 11mph
Humidity: 81%   Direction: 200°SSW
Pressure: 30.18"   Gusts: NA
Location:  23.6°N, 101.98°E
Report Text: ZPPP 201600Z 20005MPS CAVOK 05/02 Q1022 BECMG 04006MPS
Loading
Personal Weather Stations






























Interactive Weather Map New forecast layout! Learn more

10-Day Weather Forecast

Advertisements
Track Severe Weather on mobile